sensor_id;sensor_type;location;lat;lon;timestamp;P1;durP1;ratioP1;P2;durP2;ratioP2
17197;SDS011;8715;51.010;6.812;2023-07-29T00:00:07;988.08;;;898.50;;
17197;SDS011;8715;51.010;6.812;2023-07-29T00:02:52;985.13;;;896.00;;
17197;SDS011;8715;51.010;6.812;2023-07-29T00:05:37;992.03;;;903.35;;
17197;SDS011;8715;51.010;6.812;2023-07-29T00:08:24;986.58;;;896.75;;
17197;SDS011;8715;51.010;6.812;2023-07-29T00:11:09;983.22;;;894.15;;
17197;SDS011;8715;51.010;6.812;2023-07-29T00:13:53;987.65;;;899.50;;
17197;SDS011;8715;51.010;6.812;2023-07-29T00:16:38;990.13;;;901.92;;
17197;SDS011;8715;51.010;6.812;2023-07-29T00:19:23;989.45;;;900.75;;
17197;SDS011;8715;51.010;6.812;2023-07-29T00:22:08;983.58;;;895.05;;
17197;SDS011;8715;51.010;6.812;2023-07-29T00:24:54;983.88;;;894.85;;
17197;SDS011;8715;51.010;6.812;2023-07-29T00:27:41;984.05;;;895.33;;
17197;SDS011;8715;51.010;6.812;2023-07-29T00:30:26;984.60;;;896.10;;
17197;SDS011;8715;51.010;6.812;2023-07-29T00:33:11;982.67;;;894.28;;
17197;SDS011;8715;51.010;6.812;2023-07-29T00:35:56;984.80;;;895.70;;
17197;SDS011;8715;51.010;6.812;2023-07-29T00:38:45;981.42;;;893.03;;
17197;SDS011;8715;51.010;6.812;2023-07-29T00:41:31;982.45;;;893.72;;
17197;SDS011;8715;51.010;6.812;2023-07-29T00:44:16;984.17;;;895.08;;
17197;SDS011;8715;51.010;6.812;2023-07-29T00:47:02;982.83;;;894.45;;
17197;SDS011;8715;51.010;6.812;2023-07-29T00:49:47;982.35;;;893.63;;
17197;SDS011;8715;51.010;6.812;2023-07-29T00:52:32;982.53;;;893.75;;
17197;SDS011;8715;51.010;6.812;2023-07-29T00:55:17;986.00;;;898.67;;
17197;SDS011;8715;51.010;6.812;2023-07-29T00:58:03;990.40;;;901.90;;
17197;SDS011;8715;51.010;6.812;2023-07-29T01:00:49;983.17;;;894.53;;
17197;SDS011;8715;51.010;6.812;2023-07-29T01:03:35;980.92;;;891.90;;
17197;SDS011;8715;51.010;6.812;2023-07-29T01:06:22;983.85;;;894.95;;
17197;SDS011;8715;51.010;6.812;2023-07-29T01:09:09;983.80;;;895.05;;
17197;SDS011;8715;51.010;6.812;2023-07-29T01:11:57;982.58;;;893.65;;
17197;SDS011;8715;51.010;6.812;2023-07-29T01:14:46;983.30;;;894.13;;
17197;SDS011;8715;51.010;6.812;2023-07-29T01:17:32;984.63;;;895.55;;
17197;SDS011;8715;51.010;6.812;2023-07-29T01:20:19;982.00;;;893.35;;
17197;SDS011;8715;51.010;6.812;2023-07-29T01:23:04;981.00;;;892.83;;
17197;SDS011;8715;51.010;6.812;2023-07-29T01:25:50;982.78;;;893.67;;
17197;SDS011;8715;51.010;6.812;2023-07-29T01:28:35;982.22;;;893.10;;
17197;SDS011;8715;51.010;6.812;2023-07-29T01:31:21;981.50;;;892.67;;
17197;SDS011;8715;51.010;6.812;2023-07-29T01:34:09;985.13;;;895.58;;
17197;SDS011;8715;51.010;6.812;2023-07-29T01:36:58;984.05;;;894.47;;
17197;SDS011;8715;51.010;6.812;2023-07-29T01:39:45;983.70;;;894.10;;
17197;SDS011;8715;51.010;6.812;2023-07-29T01:42:33;984.08;;;894.35;;
17197;SDS011;8715;51.010;6.812;2023-07-29T01:45:18;986.63;;;898.42;;
17197;SDS011;8715;51.010;6.812;2023-07-29T01:48:03;983.75;;;894.17;;
17197;SDS011;8715;51.010;6.812;2023-07-29T01:50:49;980.22;;;891.25;;
17197;SDS011;8715;51.010;6.812;2023-07-29T01:53:33;981.53;;;892.40;;
17197;SDS011;8715;51.010;6.812;2023-07-29T01:56:18;982.03;;;892.63;;
17197;SDS011;8715;51.010;6.812;2023-07-29T01:59:05;993.60;;;903.72;;
17197;SDS011;8715;51.010;6.812;2023-07-29T02:01:49;985.00;;;895.55;;
17197;SDS011;8715;51.010;6.812;2023-07-29T02:04:34;977.83;;;889.30;;
17197;SDS011;8715;51.010;6.812;2023-07-29T02:07:19;981.22;;;892.10;;
17197;SDS011;8715;51.010;6.812;2023-07-29T02:10:05;980.55;;;891.78;;
17197;SDS011;8715;51.010;6.812;2023-07-29T02:12:50;982.70;;;893.05;;
17197;SDS011;8715;51.010;6.812;2023-07-29T02:15:36;981.58;;;892.55;;
17197;SDS011;8715;51.010;6.812;2023-07-29T02:18:21;983.25;;;893.83;;
17197;SDS011;8715;51.010;6.812;2023-07-29T02:21:06;981.78;;;892.95;;
17197;SDS011;8715;51.010;6.812;2023-07-29T02:23:51;981.45;;;892.65;;
17197;SDS011;8715;51.010;6.812;2023-07-29T02:26:36;981.60;;;892.47;;
17197;SDS011;8715;51.010;6.812;2023-07-29T02:29:21;986.88;;;898.17;;
17197;SDS011;8715;51.010;6.812;2023-07-29T02:32:07;979.58;;;890.63;;
17197;SDS011;8715;51.010;6.812;2023-07-29T02:34:52;979.28;;;890.13;;
17197;SDS011;8715;51.010;6.812;2023-07-29T02:37:37;980.33;;;891.70;;
17197;SDS011;8715;51.010;6.812;2023-07-29T02:40:22;985.08;;;896.38;;
17197;SDS011;8715;51.010;6.812;2023-07-29T02:43:10;981.60;;;893.33;;
17197;SDS011;8715;51.010;6.812;2023-07-29T02:45:55;981.25;;;892.42;;
17197;SDS011;8715;51.010;6.812;2023-07-29T02:48:41;982.40;;;892.83;;
17197;SDS011;8715;51.010;6.812;2023-07-29T02:51:26;981.20;;;892.58;;
17197;SDS011;8715;51.010;6.812;2023-07-29T02:54:11;981.60;;;892.38;;
17197;SDS011;8715;51.010;6.812;2023-07-29T02:56:56;983.58;;;894.50;;
17197;SDS011;8715;51.010;6.812;2023-07-29T02:59:41;981.50;;;892.75;;
17197;SDS011;8715;51.010;6.812;2023-07-29T03:02:26;978.55;;;890.25;;
17197;SDS011;8715;51.010;6.812;2023-07-29T03:05:12;983.30;;;894.78;;
17197;SDS011;8715;51.010;6.812;2023-07-29T03:07:57;981.97;;;893.58;;
17197;SDS011;8715;51.010;6.812;2023-07-29T03:10:42;977.00;;;888.63;;
17197;SDS011;8715;51.010;6.812;2023-07-29T03:13:27;980.90;;;891.85;;
17197;SDS011;8715;51.010;6.812;2023-07-29T03:16:13;982.85;;;893.45;;
17197;SDS011;8715;51.010;6.812;2023-07-29T03:18:58;977.83;;;889.40;;
17197;SDS011;8715;51.010;6.812;2023-07-29T03:21:45;980.05;;;891.05;;
17197;SDS011;8715;51.010;6.812;2023-07-29T03:24:30;980.10;;;890.72;;
17197;SDS011;8715;51.010;6.812;2023-07-29T03:27:16;982.97;;;893.13;;
17197;SDS011;8715;51.010;6.812;2023-07-29T03:33:19;980.05;;;891.47;;
17197;SDS011;8715;51.010;6.812;2023-07-29T03:36:04;979.50;;;891.90;;
17197;SDS011;8715;51.010;6.812;2023-07-29T03:38:50;979.17;;;891.65;;
17197;SDS011;8715;51.010;6.812;2023-07-29T03:41:35;977.53;;;889.78;;
17197;SDS011;8715;51.010;6.812;2023-07-29T03:44:20;977.80;;;890.45;;
17197;SDS011;8715;51.010;6.812;2023-07-29T03:47:05;980.35;;;892.22;;
17197;SDS011;8715;51.010;6.812;2023-07-29T03:49:50;981.95;;;893.80;;
17197;SDS011;8715;51.010;6.812;2023-07-29T03:52:35;979.05;;;890.70;;
17197;SDS011;8715;51.010;6.812;2023-07-29T03:55:21;978.60;;;890.35;;
17197;SDS011;8715;51.010;6.812;2023-07-29T03:58:07;977.97;;;890.33;;
17197;SDS011;8715;51.010;6.812;2023-07-29T04:00:52;976.63;;;888.88;;
17197;SDS011;8715;51.010;6.812;2023-07-29T04:03:37;980.03;;;892.38;;
17197;SDS011;8715;51.010;6.812;2023-07-29T04:06:22;981.13;;;892.85;;
17197;SDS011;8715;51.010;6.812;2023-07-29T04:09:07;977.42;;;890.05;;
17197;SDS011;8715;51.010;6.812;2023-07-29T04:11:54;975.42;;;888.20;;
17197;SDS011;8715;51.010;6.812;2023-07-29T04:14:39;977.95;;;890.78;;
17197;SDS011;8715;51.010;6.812;2023-07-29T04:17:24;978.50;;;891.17;;
17197;SDS011;8715;51.010;6.812;2023-07-29T04:20:09;980.05;;;892.20;;
17197;SDS011;8715;51.010;6.812;2023-07-29T04:22:54;978.35;;;890.67;;
17197;SDS011;8715;51.010;6.812;2023-07-29T04:25:39;984.13;;;897.17;;
17197;SDS011;8715;51.010;6.812;2023-07-29T04:28:25;975.22;;;888.58;;
17197;SDS011;8715;51.010;6.812;2023-07-29T04:31:10;975.75;;;888.80;;
17197;SDS011;8715;51.010;6.812;2023-07-29T04:33:55;978.42;;;891.20;;
17197;SDS011;8715;51.010;6.812;2023-07-29T04:36:40;976.63;;;889.33;;
17197;SDS011;8715;51.010;6.812;2023-07-29T04:39:25;974.35;;;887.35;;
17197;SDS011;8715;51.010;6.812;2023-07-29T04:42:10;976.50;;;889.67;;
17197;SDS011;8715;51.010;6.812;2023-07-29T04:44:56;976.65;;;889.85;;
17197;SDS011;8715;51.010;6.812;2023-07-29T04:47:41;971.72;;;884.97;;
17197;SDS011;8715;51.010;6.812;2023-07-29T04:50:26;980.92;;;893.90;;
17197;SDS011;8715;51.010;6.812;2023-07-29T04:53:11;976.40;;;889.83;;
17197;SDS011;8715;51.010;6.812;2023-07-29T04:55:56;974.50;;;888.70;;
17197;SDS011;8715;51.010;6.812;2023-07-29T04:58:41;979.58;;;892.80;;
17197;SDS011;8715;51.010;6.812;2023-07-29T05:01:27;979.10;;;891.63;;
17197;SDS011;8715;51.010;6.812;2023-07-29T05:04:12;977.72;;;890.88;;
17197;SDS011;8715;51.010;6.812;2023-07-29T05:06:57;980.80;;;893.72;;
17197;SDS011;8715;51.010;6.812;2023-07-29T05:09:42;978.05;;;891.00;;
17197;SDS011;8715;51.010;6.812;2023-07-29T05:12:27;973.33;;;887.00;;
17197;SDS011;8715;51.010;6.812;2023-07-29T05:15:12;975.33;;;888.90;;
17197;SDS011;8715;51.010;6.812;2023-07-29T05:17:59;975.42;;;888.70;;
17197;SDS011;8715;51.010;6.812;2023-07-29T05:20:44;977.28;;;890.40;;
17197;SDS011;8715;51.010;6.812;2023-07-29T05:23:29;976.42;;;889.53;;
17197;SDS011;8715;51.010;6.812;2023-07-29T05:26:14;977.55;;;891.10;;
17197;SDS011;8715;51.010;6.812;2023-07-29T05:28:59;978.15;;;891.17;;
17197;SDS011;8715;51.010;6.812;2023-07-29T05:31:44;976.50;;;889.88;;
17197;SDS011;8715;51.010;6.812;2023-07-29T05:34:30;984.38;;;897.78;;
17197;SDS011;8715;51.010;6.812;2023-07-29T05:37:15;977.85;;;890.85;;
17197;SDS011;8715;51.010;6.812;2023-07-29T05:40:00;978.03;;;890.90;;
17197;SDS011;8715;51.010;6.812;2023-07-29T05:42:46;977.80;;;890.72;;
17197;SDS011;8715;51.010;6.812;2023-07-29T05:45:31;978.80;;;891.70;;
17197;SDS011;8715;51.010;6.812;2023-07-29T05:48:16;979.03;;;891.58;;
17197;SDS011;8715;51.010;6.812;2023-07-29T05:51:03;977.33;;;890.40;;
17197;SDS011;8715;51.010;6.812;2023-07-29T05:53:48;977.55;;;890.15;;
17197;SDS011;8715;51.010;6.812;2023-07-29T05:56:33;980.70;;;893.08;;
17197;SDS011;8715;51.010;6.812;2023-07-29T05:59:18;975.03;;;887.92;;
17197;SDS011;8715;51.010;6.812;2023-07-29T06:02:03;974.47;;;887.88;;
17197;SDS011;8715;51.010;6.812;2023-07-29T06:04:48;983.97;;;895.78;;
17197;SDS011;8715;51.010;6.812;2023-07-29T06:07:34;979.40;;;891.83;;
17197;SDS011;8715;51.010;6.812;2023-07-29T06:10:19;979.83;;;892.88;;
17197;SDS011;8715;51.010;6.812;2023-07-29T06:13:06;987.92;;;901.42;;
17197;SDS011;8715;51.010;6.812;2023-07-29T06:15:51;985.35;;;898.53;;
17197;SDS011;8715;51.010;6.812;2023-07-29T06:18:36;974.45;;;887.10;;
17197;SDS011;8715;51.010;6.812;2023-07-29T06:21:21;977.45;;;890.13;;
17197;SDS011;8715;51.010;6.812;2023-07-29T06:24:07;976.65;;;890.03;;
17197;SDS011;8715;51.010;6.812;2023-07-29T06:26:52;974.08;;;887.47;;
17197;SDS011;8715;51.010;6.812;2023-07-29T06:29:37;973.70;;;887.05;;
17197;SDS011;8715;51.010;6.812;2023-07-29T06:32:21;982.50;;;895.95;;
17197;SDS011;8715;51.010;6.812;2023-07-29T06:35:07;979.78;;;892.20;;
17197;SDS011;8715;51.010;6.812;2023-07-29T06:37:52;981.60;;;893.90;;
17197;SDS011;8715;51.010;6.812;2023-07-29T06:40:38;979.50;;;891.92;;
17197;SDS011;8715;51.010;6.812;2023-07-29T06:43:23;983.55;;;896.95;;
17197;SDS011;8715;51.010;6.812;2023-07-29T06:46:08;976.50;;;889.25;;
17197;SDS011;8715;51.010;6.812;2023-07-29T06:48:53;978.30;;;891.58;;
17197;SDS011;8715;51.010;6.812;2023-07-29T06:51:38;977.58;;;890.55;;
17197;SDS011;8715;51.010;6.812;2023-07-29T06:54:23;976.13;;;888.95;;
17197;SDS011;8715;51.010;6.812;2023-07-29T06:57:10;975.47;;;888.05;;
17197;SDS011;8715;51.010;6.812;2023-07-29T06:59:55;977.05;;;889.65;;
17197;SDS011;8715;51.010;6.812;2023-07-29T07:02:40;983.63;;;894.85;;
17197;SDS011;8715;51.010;6.812;2023-07-29T07:05:25;985.00;;;894.33;;
17197;SDS011;8715;51.010;6.812;2023-07-29T07:08:10;983.75;;;894.10;;
17197;SDS011;8715;51.010;6.812;2023-07-29T07:10:55;985.42;;;895.70;;
17197;SDS011;8715;51.010;6.812;2023-07-29T07:13:41;983.13;;;894.00;;
17197;SDS011;8715;51.010;6.812;2023-07-29T07:16:26;983.80;;;893.83;;
17197;SDS011;8715;51.010;6.812;2023-07-29T07:19:13;988.53;;;897.85;;
17197;SDS011;8715;51.010;6.812;2023-07-29T07:21:58;990.58;;;899.40;;
17197;SDS011;8715;51.010;6.812;2023-07-29T07:24:43;991.33;;;899.42;;
17197;SDS011;8715;51.010;6.812;2023-07-29T07:27:28;992.90;;;900.67;;
17197;SDS011;8715;51.010;6.812;2023-07-29T07:30:15;995.85;;;902.60;;
17197;SDS011;8715;51.010;6.812;2023-07-29T07:33:00;995.10;;;901.63;;
17197;SDS011;8715;51.010;6.812;2023-07-29T07:35:44;996.33;;;902.67;;
17197;SDS011;8715;51.010;6.812;2023-07-29T07:38:29;997.30;;;903.25;;
17197;SDS011;8715;51.010;6.812;2023-07-29T07:41:14;995.60;;;900.75;;
17197;SDS011;8715;51.010;6.812;2023-07-29T07:43:59;1001.15;;;905.88;;
17197;SDS011;8715;51.010;6.812;2023-07-29T07:46:45;1000.65;;;904.55;;
17197;SDS011;8715;51.010;6.812;2023-07-29T07:49:30;1001.58;;;904.92;;
17197;SDS011;8715;51.010;6.812;2023-07-29T07:52:15;1002.63;;;904.83;;
17197;SDS011;8715;51.010;6.812;2023-07-29T07:55:00;998.53;;;902.47;;
17197;SDS011;8715;51.010;6.812;2023-07-29T07:57:45;999.10;;;904.22;;
17197;SDS011;8715;51.010;6.812;2023-07-29T08:00:31;1002.30;;;904.05;;
17197;SDS011;8715;51.010;6.812;2023-07-29T08:03:17;994.70;;;900.30;;
17197;SDS011;8715;51.010;6.812;2023-07-29T08:06:02;999.40;;;903.33;;
17197;SDS011;8715;51.010;6.812;2023-07-29T08:08:47;994.45;;;899.60;;
17197;SDS011;8715;51.010;6.812;2023-07-29T08:11:32;994.35;;;900.20;;
17197;SDS011;8715;51.010;6.812;2023-07-29T08:14:17;989.90;;;897.08;;
17197;SDS011;8715;51.010;6.812;2023-07-29T08:17:02;990.60;;;897.92;;
17197;SDS011;8715;51.010;6.812;2023-07-29T08:19:48;988.47;;;896.30;;
17197;SDS011;8715;51.010;6.812;2023-07-29T08:22:33;999.72;;;902.88;;
17197;SDS011;8715;51.010;6.812;2023-07-29T08:25:18;1000.50;;;903.78;;
17197;SDS011;8715;51.010;6.812;2023-07-29T08:28:03;1001.55;;;903.58;;
17197;SDS011;8715;51.010;6.812;2023-07-29T08:30:48;998.10;;;901.58;;
17197;SDS011;8715;51.010;6.812;2023-07-29T08:33:33;1007.72;;;907.78;;
17197;SDS011;8715;51.010;6.812;2023-07-29T08:36:20;1006.67;;;907.28;;
17197;SDS011;8715;51.010;6.812;2023-07-29T08:39:05;1000.80;;;904.75;;
17197;SDS011;8715;51.010;6.812;2023-07-29T08:41:51;1001.22;;;904.47;;
17197;SDS011;8715;51.010;6.812;2023-07-29T08:44:40;1008.90;;;910.13;;
17197;SDS011;8715;51.010;6.812;2023-07-29T08:47:26;1007.50;;;908.92;;
17197;SDS011;8715;51.010;6.812;2023-07-29T08:50:11;1009.22;;;909.42;;
17197;SDS011;8715;51.010;6.812;2023-07-29T08:52:57;1011.50;;;910.25;;
17197;SDS011;8715;51.010;6.812;2023-07-29T08:55:43;1009.60;;;908.85;;
17197;SDS011;8715;51.010;6.812;2023-07-29T08:58:28;1009.10;;;909.85;;
17197;SDS011;8715;51.010;6.812;2023-07-29T09:01:13;1011.53;;;909.67;;
17197;SDS011;8715;51.010;6.812;2023-07-29T09:03:59;1009.28;;;909.15;;
17197;SDS011;8715;51.010;6.812;2023-07-29T09:06:44;1014.15;;;911.85;;
17197;SDS011;8715;51.010;6.812;2023-07-29T09:09:31;1006.33;;;906.92;;
17197;SDS011;8715;51.010;6.812;2023-07-29T09:12:16;1007.40;;;907.72;;
17197;SDS011;8715;51.010;6.812;2023-07-29T09:15:01;1005.95;;;907.00;;
17197;SDS011;8715;51.010;6.812;2023-07-29T09:17:46;1006.50;;;907.22;;
17197;SDS011;8715;51.010;6.812;2023-07-29T09:20:32;1004.75;;;907.08;;
17197;SDS011;8715;51.010;6.812;2023-07-29T09:23:18;1005.25;;;907.53;;
17197;SDS011;8715;51.010;6.812;2023-07-29T09:26:04;1004.25;;;906.30;;
17197;SDS011;8715;51.010;6.812;2023-07-29T09:28:51;1010.13;;;909.75;;
17197;SDS011;8715;51.010;6.812;2023-07-29T09:31:36;1011.28;;;909.38;;
17197;SDS011;8715;51.010;6.812;2023-07-29T09:34:21;1012.00;;;910.38;;
17197;SDS011;8715;51.010;6.812;2023-07-29T09:37:06;1020.17;;;915.65;;
17197;SDS011;8715;51.010;6.812;2023-07-29T09:39:51;1017.45;;;914.35;;
17197;SDS011;8715;51.010;6.812;2023-07-29T09:42:37;1022.58;;;916.78;;
17197;SDS011;8715;51.010;6.812;2023-07-29T09:45:22;1014.38;;;911.30;;
17197;SDS011;8715;51.010;6.812;2023-07-29T09:48:08;1016.75;;;911.55;;
17197;SDS011;8715;51.010;6.812;2023-07-29T09:50:54;1016.63;;;911.42;;
17197;SDS011;8715;51.010;6.812;2023-07-29T09:53:40;1012.67;;;910.90;;
17197;SDS011;8715;51.010;6.812;2023-07-29T09:56:26;1014.95;;;912.60;;
17197;SDS011;8715;51.010;6.812;2023-07-29T09:59:12;1015.85;;;912.70;;
17197;SDS011;8715;51.010;6.812;2023-07-29T10:01:58;1019.13;;;914.63;;
17197;SDS011;8715;51.010;6.812;2023-07-29T10:04:43;1018.50;;;912.72;;
17197;SDS011;8715;51.010;6.812;2023-07-29T10:07:28;1023.55;;;917.78;;
17197;SDS011;8715;51.010;6.812;2023-07-29T10:10:14;1019.67;;;915.33;;
17197;SDS011;8715;51.010;6.812;2023-07-29T10:12:59;1021.30;;;915.72;;
17197;SDS011;8715;51.010;6.812;2023-07-29T10:15:47;1025.25;;;917.85;;
17197;SDS011;8715;51.010;6.812;2023-07-29T10:18:33;1019.42;;;913.67;;
17197;SDS011;8715;51.010;6.812;2023-07-29T10:21:18;1013.78;;;911.80;;
17197;SDS011;8715;51.010;6.812;2023-07-29T10:24:04;1012.72;;;910.97;;
17197;SDS011;8715;51.010;6.812;2023-07-29T10:26:50;1015.38;;;913.63;;
17197;SDS011;8715;51.010;6.812;2023-07-29T10:29:37;1010.97;;;909.63;;
17197;SDS011;8715;51.010;6.812;2023-07-29T10:32:24;1015.47;;;912.33;;
17197;SDS011;8715;51.010;6.812;2023-07-29T10:35:09;1017.83;;;913.70;;
17197;SDS011;8715;51.010;6.812;2023-07-29T10:37:55;1015.03;;;911.95;;
17197;SDS011;8715;51.010;6.812;2023-07-29T10:40:44;1014.92;;;912.13;;
17197;SDS011;8715;51.010;6.812;2023-07-29T10:43:31;1013.45;;;910.17;;
17197;SDS011;8715;51.010;6.812;2023-07-29T10:46:16;1012.95;;;909.50;;
17197;SDS011;8715;51.010;6.812;2023-07-29T10:49:03;1013.17;;;911.38;;
17197;SDS011;8715;51.010;6.812;2023-07-29T10:51:48;1014.78;;;912.95;;
17197;SDS011;8715;51.010;6.812;2023-07-29T10:54:41;1016.47;;;912.58;;
17197;SDS011;8715;51.010;6.812;2023-07-29T10:57:33;1011.08;;;909.45;;
17197;SDS011;8715;51.010;6.812;2023-07-29T11:00:19;1017.25;;;913.45;;
17197;SDS011;8715;51.010;6.812;2023-07-29T11:03:05;1020.35;;;915.35;;
17197;SDS011;8715;51.010;6.812;2023-07-29T11:05:52;1019.30;;;917.05;;
17197;SDS011;8715;51.010;6.812;2023-07-29T11:08:38;1016.33;;;912.92;;
17197;SDS011;8715;51.010;6.812;2023-07-29T11:11:23;1021.85;;;915.92;;
17197;SDS011;8715;51.010;6.812;2023-07-29T11:14:07;1026.85;;;919.70;;
17197;SDS011;8715;51.010;6.812;2023-07-29T11:16:52;1021.85;;;916.72;;
17197;SDS011;8715;51.010;6.812;2023-07-29T11:19:38;1017.47;;;913.15;;
17197;SDS011;8715;51.010;6.812;2023-07-29T11:22:25;1028.10;;;922.33;;
17197;SDS011;8715;51.010;6.812;2023-07-29T11:25:11;1026.53;;;918.80;;
17197;SDS011;8715;51.010;6.812;2023-07-29T11:27:56;1031.07;;;921.53;;
17197;SDS011;8715;51.010;6.812;2023-07-29T11:30:41;1029.82;;;920.72;;
17197;SDS011;8715;51.010;6.812;2023-07-29T11:33:26;1033.60;;;925.67;;
17197;SDS011;8715;51.010;6.812;2023-07-29T11:36:18;1031.43;;;922.40;;
17197;SDS011;8715;51.010;6.812;2023-07-29T11:39:10;1024.38;;;918.58;;
17197;SDS011;8715;51.010;6.812;2023-07-29T11:41:56;1024.03;;;918.45;;
17197;SDS011;8715;51.010;6.812;2023-07-29T11:44:41;1025.53;;;918.28;;
17197;SDS011;8715;51.010;6.812;2023-07-29T11:47:26;1033.85;;;924.70;;
17197;SDS011;8715;51.010;6.812;2023-07-29T11:50:12;1024.55;;;917.55;;
17197;SDS011;8715;51.010;6.812;2023-07-29T11:52:57;1025.95;;;919.00;;
17197;SDS011;8715;51.010;6.812;2023-07-29T11:55:44;1027.82;;;919.03;;
17197;SDS011;8715;51.010;6.812;2023-07-29T11:58:29;1029.32;;;919.33;;
17197;SDS011;8715;51.010;6.812;2023-07-29T12:01:14;1031.72;;;921.65;;
17197;SDS011;8715;51.010;6.812;2023-07-29T12:03:59;1035.68;;;924.60;;
17197;SDS011;8715;51.010;6.812;2023-07-29T12:06:44;1028.78;;;921.13;;
17197;SDS011;8715;51.010;6.812;2023-07-29T12:09:29;1026.57;;;919.78;;
17197;SDS011;8715;51.010;6.812;2023-07-29T12:12:16;1030.60;;;925.17;;
17197;SDS011;8715;51.010;6.812;2023-07-29T12:15:01;1027.40;;;921.05;;
17197;SDS011;8715;51.010;6.812;2023-07-29T12:17:47;1029.38;;;924.15;;
17197;SDS011;8715;51.010;6.812;2023-07-29T12:20:32;1027.53;;;920.42;;
17197;SDS011;8715;51.010;6.812;2023-07-29T12:23:18;1028.15;;;920.70;;
17197;SDS011;8715;51.010;6.812;2023-07-29T12:26:08;1031.70;;;921.33;;
17197;SDS011;8715;51.010;6.812;2023-07-29T12:28:54;1032.70;;;922.33;;
17197;SDS011;8715;51.010;6.812;2023-07-29T12:31:40;1033.22;;;923.03;;
17197;SDS011;8715;51.010;6.812;2023-07-29T12:34:25;1035.20;;;923.95;;
17197;SDS011;8715;51.010;6.812;2023-07-29T12:37:10;1034.30;;;922.50;;
17197;SDS011;8715;51.010;6.812;2023-07-29T12:39:55;1029.50;;;920.78;;
17197;SDS011;8715;51.010;6.812;2023-07-29T12:42:40;1026.03;;;919.22;;
17197;SDS011;8715;51.010;6.812;2023-07-29T12:45:26;1026.40;;;920.00;;
17197;SDS011;8715;51.010;6.812;2023-07-29T12:48:12;1024.25;;;918.13;;
17197;SDS011;8715;51.010;6.812;2023-07-29T12:50:57;1022.90;;;917.40;;
17197;SDS011;8715;51.010;6.812;2023-07-29T12:53:41;1025.03;;;919.05;;
17197;SDS011;8715;51.010;6.812;2023-07-29T12:56:26;1023.30;;;918.45;;
17197;SDS011;8715;51.010;6.812;2023-07-29T12:59:11;1024.28;;;919.15;;
17197;SDS011;8715;51.010;6.812;2023-07-29T13:01:57;1019.72;;;915.10;;
17197;SDS011;8715;51.010;6.812;2023-07-29T13:04:42;1022.03;;;916.80;;
17197;SDS011;8715;51.010;6.812;2023-07-29T13:07:27;1026.00;;;919.65;;
17197;SDS011;8715;51.010;6.812;2023-07-29T13:10:12;1023.63;;;917.95;;
17197;SDS011;8715;51.010;6.812;2023-07-29T13:12:57;1022.40;;;917.97;;
17197;SDS011;8715;51.010;6.812;2023-07-29T13:15:42;1025.45;;;919.67;;
17197;SDS011;8715;51.010;6.812;2023-07-29T13:18:29;1024.65;;;918.97;;
17197;SDS011;8715;51.010;6.812;2023-07-29T13:21:14;1027.38;;;920.22;;
17197;SDS011;8715;51.010;6.812;2023-07-29T13:23:59;1026.13;;;917.80;;
17197;SDS011;8715;51.010;6.812;2023-07-29T13:26:43;1023.33;;;917.05;;
17197;SDS011;8715;51.010;6.812;2023-07-29T13:29:28;1023.25;;;917.95;;
17197;SDS011;8715;51.010;6.812;2023-07-29T13:32:13;1022.15;;;917.00;;
17197;SDS011;8715;51.010;6.812;2023-07-29T13:34:59;1013.78;;;912.60;;
17197;SDS011;8715;51.010;6.812;2023-07-29T13:37:44;1017.15;;;915.33;;
17197;SDS011;8715;51.010;6.812;2023-07-29T13:40:29;1014.90;;;913.10;;
17197;SDS011;8715;51.010;6.812;2023-07-29T13:43:14;1016.63;;;914.75;;
17197;SDS011;8715;51.010;6.812;2023-07-29T13:45:59;1010.30;;;910.50;;
17197;SDS011;8715;51.010;6.812;2023-07-29T13:48:44;1014.53;;;915.50;;
17197;SDS011;8715;51.010;6.812;2023-07-29T13:51:30;1007.15;;;908.70;;
17197;SDS011;8715;51.010;6.812;2023-07-29T13:54:15;1009.45;;;911.25;;
17197;SDS011;8715;51.010;6.812;2023-07-29T13:57:00;1004.67;;;907.08;;
17197;SDS011;8715;51.010;6.812;2023-07-29T13:59:45;1006.13;;;908.90;;
17197;SDS011;8715;51.010;6.812;2023-07-29T14:02:30;1003.38;;;906.22;;
17197;SDS011;8715;51.010;6.812;2023-07-29T14:05:15;1002.20;;;905.67;;
17197;SDS011;8715;51.010;6.812;2023-07-29T14:08:02;1002.17;;;905.30;;
17197;SDS011;8715;51.010;6.812;2023-07-29T14:10:47;1001.70;;;905.70;;
17197;SDS011;8715;51.010;6.812;2023-07-29T14:13:33;1004.95;;;908.17;;
17197;SDS011;8715;51.010;6.812;2023-07-29T14:16:17;1002.33;;;905.30;;
17197;SDS011;8715;51.010;6.812;2023-07-29T14:19:02;1003.08;;;905.97;;
17197;SDS011;8715;51.010;6.812;2023-07-29T14:21:47;1010.42;;;912.13;;
17197;SDS011;8715;51.010;6.812;2023-07-29T14:24:34;1010.40;;;911.08;;
17197;SDS011;8715;51.010;6.812;2023-07-29T14:27:18;1010.90;;;911.00;;
17197;SDS011;8715;51.010;6.812;2023-07-29T14:30:04;1011.17;;;910.85;;
17197;SDS011;8715;51.010;6.812;2023-07-29T14:32:49;1013.30;;;912.17;;
17197;SDS011;8715;51.010;6.812;2023-07-29T14:35:34;1009.67;;;909.63;;
17197;SDS011;8715;51.010;6.812;2023-07-29T14:38:19;1012.10;;;910.90;;
17197;SDS011;8715;51.010;6.812;2023-07-29T14:41:06;1010.65;;;910.50;;
17197;SDS011;8715;51.010;6.812;2023-07-29T14:43:51;1015.75;;;916.45;;
17197;SDS011;8715;51.010;6.812;2023-07-29T14:46:35;1010.25;;;909.90;;
17197;SDS011;8715;51.010;6.812;2023-07-29T14:49:20;1008.97;;;909.25;;
17197;SDS011;8715;51.010;6.812;2023-07-29T14:52:06;1009.08;;;909.85;;
17197;SDS011;8715;51.010;6.812;2023-07-29T14:54:51;1006.95;;;908.45;;
17197;SDS011;8715;51.010;6.812;2023-07-29T14:57:38;1010.13;;;911.45;;
17197;SDS011;8715;51.010;6.812;2023-07-29T15:00:25;1009.58;;;909.97;;
17197;SDS011;8715;51.010;6.812;2023-07-29T15:03:10;1005.63;;;907.08;;
17197;SDS011;8715;51.010;6.812;2023-07-29T15:05:54;1009.60;;;909.60;;
17197;SDS011;8715;51.010;6.812;2023-07-29T15:08:39;1008.95;;;909.70;;
17197;SDS011;8715;51.010;6.812;2023-07-29T15:11:24;1008.67;;;909.25;;
17197;SDS011;8715;51.010;6.812;2023-07-29T15:14:10;1010.03;;;910.38;;
17197;SDS011;8715;51.010;6.812;2023-07-29T15:16:55;1010.38;;;910.05;;
17197;SDS011;8715;51.010;6.812;2023-07-29T15:19:40;1012.00;;;912.00;;
17197;SDS011;8715;51.010;6.812;2023-07-29T15:22:25;1011.47;;;911.40;;
17197;SDS011;8715;51.010;6.812;2023-07-29T15:25:10;1014.53;;;912.92;;
17197;SDS011;8715;51.010;6.812;2023-07-29T15:27:55;1012.45;;;911.78;;
17197;SDS011;8715;51.010;6.812;2023-07-29T15:30:43;1009.17;;;908.78;;
17197;SDS011;8715;51.010;6.812;2023-07-29T15:33:28;1012.70;;;911.53;;
17197;SDS011;8715;51.010;6.812;2023-07-29T15:36:12;1011.85;;;910.60;;
17197;SDS011;8715;51.010;6.812;2023-07-29T15:38:57;1013.47;;;911.00;;
17197;SDS011;8715;51.010;6.812;2023-07-29T15:41:42;1017.08;;;913.60;;
17197;SDS011;8715;51.010;6.812;2023-07-29T15:44:27;1021.85;;;915.83;;
17197;SDS011;8715;51.010;6.812;2023-07-29T15:47:14;1018.25;;;914.55;;
17197;SDS011;8715;51.010;6.812;2023-07-29T15:50:01;1018.78;;;914.83;;